Latest Weather Observations for Nowra

IDN60901

Issued at 5:51 am EDT Tuesday 21 January 2020 (issued every 10 minutes, with the page automatically refreshed every 10 minutes)

About weather observations | Map of Canberra area stations | Latest observations for Canberra area | Other Formats
Station Details ID: 068072 Name: NOWRA RAN AIR STATION AWS Lat: -34.95 Lon: 150.54 Height: 109.0 m
Data from the previous 72 hours. | See also: Recent months at Nowra
Date/Time
EDT
Temp
°C
App
Temp
°C
Dew
Point
°C
Rel
Hum
%
Delta-T
°C
Wind Press
QNH
hPa
Press
MSL
hPa
Rain since
9am
mm
Dir  Spd
km/h
Gust
km/h
Spd
kts
Gust
kts
21/05:30am 19.5 16.7 11.3 59 4.5 WNW 17 22 9 12 1003.7 1003.2 29.6
21/05:00am 19.2 15.9 11.0 59 4.5 NW 19 26 10 14 1003.3 1002.8 29.6
21/04:30am 19.0 15.8 11.3 61 4.2 NW 19 22 10 12 1003.0 1002.5 29.6
21/04:00am 17.2 15.6 12.7 75 2.5 NW 13 15 7 8 1003.1 1002.6 29.6
21/03:30am 17.8 16.6 12.7 72 2.9 NW 11 13 6 7 1002.9 1002.4 29.6
21/03:00am 17.6 17.3 13.3 76 2.4 NNW 7 9 4 5 1003.0 1002.5 29.6
21/02:30am 17.8 16.7 13.1 74 2.7 NW 11 13 6 7 1003.2 1002.7 29.6
21/02:00am 18.3 17.9 14.0 76 2.5 NW 9 11 5 6 1003.2 1002.7 29.6
21/01:30am 18.7 17.5 14.0 74 2.7 NW 13 15 7 8 1003.4 1002.9 29.6
21/01:00am 18.1 18.5 18.1 100 0.0 NW 13 13 7 7 1003.6 1003.1 29.6
21/12:30am 18.6 20.0 18.6 100 0.0 WNW 9 11 5 6 1003.6 1003.1 29.6
21/12:00am 19.0 21.5 19.0 100 0.0 W 4 9 2 5 1003.8 1003.3 29.6
 
Date/Time
EDT
Temp
°C
App
Temp
°C
Dew
Point
°C
Rel
Hum
%
Delta-T
°C
Wind Press
QNH
hPa
Press
MSL
hPa
Rain since
9am
mm
Dir  Spd
km/h
Gust
km/h
Spd
kts
Gust
kts
20/11:30pm 19.0 22.3 19.0 100 0.0 CALM 0 0 0 0 1003.9 1003.4 29.6
20/11:00pm 18.7 21.8 18.7 100 0.0 CALM 0 0 0 0 1003.9 1003.4 29.6
20/10:30pm 19.8 22.3 19.8 100 0.0 SSE 6 9 3 5 1003.4 1002.9 29.6
20/10:00pm 19.8 23.4 19.8 100 0.0 CALM 0 0 0 0 1003.3 1002.8 29.6
20/09:30pm 19.8 21.6 19.6 99 0.1 SSW 9 11 5 6 1002.5 1002.1 29.6
20/09:00pm 21.8 24.6 21.6 99 0.1 SE 9 13 5 7 1002.1 1001.7 29.6
20/08:30pm 22.7 25.5 18.9 79 2.4 NNW 2 11 1 6 1001.6 1001.2 29.6
20/08:00pm 23.8 27.2 19.3 76 2.9 CALM 0 0 0 0 1001.1 1000.7 29.6
20/07:30pm 25.1 26.6 19.7 72 3.5 ESE 11 20 6 11 1000.8 1000.4 29.6
20/07:00pm 25.5 26.9 19.6 70 3.8 ESE 11 19 6 10 1000.8 1000.4 29.6
20/06:30pm 26.7 27.9 18.3 60 5.4 WSW 9 15 5 8 1000.7 1000.3 29.6
20/06:00pm 26.8 28.5 18.6 60 5.3 WNW 7 13 4 7 1000.4 1000.0 29.6
20/05:30pm 25.8 27.9 19.0 66 4.4 NW 6 11 3 6 1000.1 999.7 29.6
20/05:00pm 24.7 27.4 20.2 76 2.9 NNW 6 9 3 5 1000.6 1000.2 29.6
20/04:30pm 23.4 25.7 20.7 85 1.8 W 9 13 5 7 1001.2 1000.8 29.6
20/04:00pm 20.5 23.3 20.5 100 0.0 NNW 6 15 3 8 1001.2 1000.8 29.6
20/03:30pm 19.4 21.1 19.4 100 0.0 NNW 9 11 5 6 1001.5 1001.1 29.6
20/03:00pm 19.1 21.1 19.1 100 0.0 NW 7 11 4 6 1001.0 1000.6 29.6
20/02:30pm 18.7 20.1 18.7 100 0.0 WNW 9 17 5 9 1001.5 1001.1 27.4
20/02:13pm 19.9 20.0 19.9 100 0.0 SE 19 24 10 13 1001.1 1000.7 18.0
20/02:00pm 20.3 20.9 20.3 100 0.0 SSW 17 28 9 15 1001.1 1000.7 17.8
20/01:45pm 23.2 22.4 20.0 82 2.1 S 24 44 13 24 1001.8 1001.4 0.0
20/01:30pm 24.4 22.0 19.2 73 3.3 ENE 30 35 16 19 999.6 999.2 0.0
20/01:25pm 24.6 22.5 19.0 71 3.6 ENE 28 35 15 19 1000.0 999.6 0.0
20/01:00pm 24.5 22.8 18.2 68 4.0 ENE 24 30 13 16 1001.0 1000.6 0.0
20/12:30pm 24.8 24.8 17.3 63 4.7 NE 13 20 7 11 1002.0 1001.6 0.0
20/12:00pm 26.1 25.6 17.7 60 5.3 E 17 26 9 14 1002.4 1002.0 0.0
20/11:30am 25.9 24.8 17.8 61 5.1 E 20 30 11 16 1002.9 1002.4 0.0
20/11:00am 25.5 25.8 17.9 63 4.8 ENE 13 20 7 11 1003.5 1003.0 0.0
20/10:30am 25.0 27.2 18.4 66 4.2 ENE 4 11 2 6 1004.0 1003.5 0.0
20/10:00am 24.7 25.4 18.9 70 3.7 NNE 13 19 7 10 1004.1 1003.6 0.0
20/09:30am 25.5 26.8 18.4 65 4.5 E 9 13 5 7 1004.1 1003.6 0.0
20/09:00am 24.5 25.7 18.2 68 4.0 E 9 15 5 8 1004.4 1003.9 0.4
20/08:30am 23.6 26.0 18.7 74 3.1 E 4 9 2 5 1004.3 1003.8 0.4
20/08:00am 22.2 25.5 19.2 83 1.9 CALM 0 0 0 0 1003.7 1003.2 0.4
20/07:30am 20.7 24.4 20.7 100 0.0 NNW 2 7 1 4 1003.8 1003.3 0.4
20/07:00am 19.6 22.4 19.6 100 0.0 NNW 4 7 2 4 1003.6 1003.1 0.4
20/06:30am 18.9 22.1 18.9 100 0.0 CALM 0 0 0 0 1003.6 1003.1 0.4
20/06:00am 19.0 20.5 19.0 100 0.0 WSW 9 11 5 6 1003.2 1002.7 0.4
20/05:30am 18.6 21.7 18.6 100 0.0 CALM 0 0 0 0 1003.2 1002.7 0.4
20/05:00am 18.8 22.0 18.8 100 0.0 CALM 0 0 0 0 1003.1 1002.6 0.4
20/04:30am 18.4 21.4 18.4 100 0.0 CALM 0 0 0 0 1003.1 1002.6 0.4
20/04:00am 18.7 21.8 18.7 100 0.0 CALM 0 0 0 0 1003.3 1002.8 0.4
20/03:30am 19.1 22.4 19.1 100 0.0 CALM 0 0 0 0 1003.2 1002.7 0.4
20/03:00am 19.2 22.5 19.2 100 0.0 CALM 0 0 0 0 1003.5 1003.0 0.4
20/02:30am 19.3 22.7 19.3 100 0.0 CALM 0 7 0 4 1003.0 1002.5 0.4
20/02:00am 19.9 23.6 19.9 100 0.0 CALM 0 0 0 0 1003.1 1002.6 0.4
20/01:30am 20.3 24.2 20.3 100 0.0 CALM 0 0 0 0 1003.3 1002.8 0.4
20/01:00am 20.5 24.3 20.2 98 0.2 CALM 0 0 0 0 1004.1 1003.6 0.4
20/12:30am 20.9 23.6 20.6 98 0.2 W 7 9 4 5 1004.9 1004.4 0.4
20/12:00am 21.0 23.8 20.8 99 0.1 W 7 9 4 5 1005.4 1004.9 0.4
 
Date/Time
EDT
Temp
°C
App
Temp
°C
Dew
Point
°C
Rel
Hum
%
Delta-T
°C
Wind Press
QNH
hPa
Press
MSL
hPa
Rain since
9am
mm
Dir  Spd
km/h
Gust
km/h
Spd
kts
Gust
kts
19/11:30pm 21.1 24.0 21.1 100 0.0 WSW 7 9 4 5 1005.8 1005.3 0.4
19/11:00pm 21.2 24.2 21.2 100 0.0 WSW 7 9 4 5 1006.2 1005.7 0.4
19/10:30pm 21.1 25.3 20.9 99 0.1 CALM 0 0 0 0 1005.8 1005.3 0.4
19/10:00pm 21.3 25.5 21.0 98 0.2 CALM 0 2 0 1 1005.6 1005.1 0.4
19/09:30pm 21.4 24.3 20.6 95 0.5 E 6 7 3 4 1005.5 1005.0 0.4
19/09:00pm 21.5 25.3 20.1 92 0.9 CALM 0 0 0 0 1005.4 1004.9 0.4
19/08:30pm 21.5 24.0 19.8 90 1.1 ENE 6 9 3 5 1005.2 1004.7 0.4
19/08:00pm 21.6 23.3 20.1 91 1.0 ENE 11 15 6 8 1005.1 1004.6 0.4
19/07:30pm 22.0 23.1 19.7 87 1.5 ENE 13 20 7 11 1004.8 1004.3 0.4
19/07:00pm 22.6 23.6 19.4 82 2.1 ENE 13 17 7 9 1004.9 1004.4 0.4
19/06:30pm 23.2 24.5 19.4 79 2.4 ENE 11 15 6 8 1004.6 1004.1 0.4
19/06:00pm 23.2 24.2 19.4 79 2.4 ENE 13 17 7 9 1004.6 1004.1 0.4
19/05:30pm 23.5 24.2 19.6 79 2.5 E 15 20 8 11 1004.7 1004.2 0.4
19/05:00pm 23.6 24.1 19.3 77 2.8 ENE 15 20 8 11 1005.1 1004.6 0.4
19/04:30pm 23.5 24.2 19.6 79 2.5 E 15 19 8 10 1005.5 1005.0 0.4
19/04:00pm 23.0 24.2 19.8 82 2.1 NE 13 19 7 10 1006.0 1005.5 0.4
19/03:30pm 22.4 23.6 19.9 86 1.6 NE 13 17 7 9 1006.4 1005.9 0.4
19/03:00pm 22.6 23.8 20.7 89 1.2 E 15 20 8 11 1006.6 1006.1 0.4
19/02:30pm 22.0 23.9 22.0 100 0.0 E 15 19 8 10 1007.0 1006.6 0.2
19/02:00pm 21.4 21.7 20.4 94 0.6 ENE 19 24 10 13 1007.3 1006.9 0.2
19/01:30pm 22.8 22.8 19.0 79 2.4 ENE 17 20 9 11 1007.5 1007.1 0.0
19/01:00pm 24.0 24.0 17.3 66 4.2 ENE 13 19 7 10 1007.8 1007.4 0.0
19/12:30pm 24.6 25.4 17.3 64 4.6 ENE 9 13 5 7 1008.1 1007.7 0.0
19/12:00pm 24.4 25.8 17.4 65 4.4 NE 6 11 3 6 1008.4 1008.0 0.0
19/11:30am 24.2 25.5 17.0 64 4.5 ENE 6 13 3 7 1008.5 1008.1 0.0
19/11:00am 23.9 25.5 16.9 65 4.3 ENE 4 9 2 5 1008.7 1008.3 0.0
19/10:30am 23.3 25.2 16.6 66 4.1 ESE 2 11 1 6 1008.7 1008.3 0.0
19/10:00am 22.7 23.9 16.9 70 3.6 E 6 7 3 4 1008.8 1008.4 0.0
19/09:30am 22.3 23.5 16.8 71 3.4 W 6 11 3 6 1009.1 1008.7 0.0
19/09:00am 22.5 24.2 17.2 72 3.3 SSE 4 7 2 4 1009.1 1008.7 0.0
19/08:30am 21.4 22.6 16.8 75 2.8 W 6 9 3 5 1009.1 1008.7 0.0
19/08:00am 20.3 20.9 16.7 80 2.2 W 9 11 5 6 1009.1 1008.7 0.0
19/07:30am 19.8 20.9 17.0 84 1.7 SW 7 9 4 5 1008.9 1008.5 0.0
19/07:00am 19.3 21.9 17.4 89 1.2 CALM 0 0 0 0 1008.6 1008.2 0.0
19/06:30am 19.1 20.2 17.2 89 1.2 W 7 9 4 5 1008.4 1008.0 0.0
19/06:00am 19.1 20.3 17.4 90 1.0 WNW 7 9 4 5 1008.4 1008.0 0.0
19/05:30am 19.2 20.6 17.3 89 1.2 WNW 6 7 3 4 1008.3 1007.9 0.0
19/05:00am 19.2 20.4 17.3 89 1.2 WNW 7 9 4 5 1008.2 1007.8 0.0
19/04:30am 19.1 21.4 17.6 91 0.9 WNW 2 7 1 4 1008.3 1007.9 0.0
19/04:00am 19.1 20.3 17.4 90 1.0 WNW 7 9 4 5 1008.3 1007.9 0.0
19/03:30am 19.1 20.0 17.6 91 0.9 SW 9 15 5 8 1008.2 1007.8 0.0
19/03:00am 19.0 20.0 17.7 92 0.8 SW 9 11 5 6 1008.4 1008.0 0.0
19/02:30am 18.9 20.8 17.7 93 0.7 SSE 4 9 2 5 1008.7 1008.3 0.0
19/02:00am 19.0 21.7 17.8 93 0.7 CALM 0 0 0 0 1008.9 1008.5 0.0
19/01:30am 18.9 20.4 17.6 92 0.8 NW 6 7 3 4 1009.2 1008.8 0.0
19/01:00am 18.9 20.0 17.2 90 1.0 W 7 9 4 5 1009.1 1008.7 0.0
19/12:30am 19.2 19.9 17.0 87 1.3 WSW 9 15 5 8 1009.5 1009.1 0.0
19/12:00am 19.3 20.2 17.6 90 1.0 W 9 11 5 6 1009.8 1009.4 0.0
 
Date/Time
EDT
Temp
°C
App
Temp
°C
Dew
Point
°C
Rel
Hum
%
Delta-T
°C
Wind Press
QNH
hPa
Press
MSL
hPa
Rain since
9am
mm
Dir  Spd
km/h
Gust
km/h
Spd
kts
Gust
kts
18/11:30pm 19.1 19.9 17.4 90 1.0 WSW 9 11 5 6 1010.0 1009.6 0.0
18/11:00pm 19.3 20.2 17.6 90 1.0 SW 9 13 5 7 1010.2 1009.8 0.0
18/10:30pm 19.3 20.6 17.6 90 1.0 SW 7 11 4 6 1010.3 1009.9 0.0
18/10:00pm 19.2 20.2 17.7 91 0.9 SSW 9 15 5 8 1010.1 1009.7 0.0
18/09:30pm 19.5 19.8 17.8 90 1.0 SSW 13 19 7 10 1010.1 1009.7 0.0
18/09:00pm 19.5 18.9 17.6 89 1.2 SSW 17 22 9 12 1009.9 1009.5 0.0
18/08:30pm 19.6 19.0 17.6 88 1.2 SSW 17 20 9 11 1009.8 1009.4 0.0
18/08:00pm 19.8 18.7 17.4 86 1.5 SSW 19 26 10 14 1009.7 1009.3 0.0
18/07:30pm 20.1 18.7 17.1 83 1.8 SSW 20 30 11 16 1009.5 1009.1 0.0
18/07:00pm 19.9 19.0 16.9 83 1.8 SSW 17 20 9 11 1009.2 1008.8 0.0
18/06:30pm 19.8 18.8 16.6 82 1.9 SSW 17 30 9 16 1009.0 1008.6 0.0
18/06:00pm 19.8 17.4 16.4 81 2.1 SSW 24 33 13 18 1009.0 1008.6 0.0
18/05:30pm 20.1 18.2 16.7 81 2.1 SSW 22 30 12 16 1009.1 1008.7 0.0
18/05:00pm 19.7 18.0 17.1 85 1.6 SSW 22 30 12 16 1009.3 1008.9 0.0
18/04:30pm 19.7 17.9 16.9 84 1.7 SSW 22 30 12 16 1009.8 1009.4 0.0
18/04:00pm 19.7 18.3 16.9 84 1.7 SSW 20 30 11 16 1010.0 1009.6 0.0
18/03:30pm 20.0 17.5 16.2 79 2.3 SSW 24 32 13 17 1010.2 1009.8 0.0
18/03:00pm 20.2 16.8 15.8 76 2.6 S 28 39 15 21 1010.4 1010.0 0.0
18/02:30pm 20.9 18.5 16.5 76 2.7 SSW 24 32 13 17 1010.3 1009.9 0.0
18/02:00pm 21.4 19.2 17.0 76 2.7 SSW 24 32 13 17 1010.4 1010.0 0.0
18/01:30pm 20.6 18.4 17.0 80 2.2 S 24 33 13 18 1010.6 1010.2 0.0
18/01:00pm 19.5 17.7 16.9 85 1.6 SSW 22 35 12 19 1011.0 1010.6 0.0
18/12:30pm 20.1 17.9 16.9 82 1.9 SSW 24 33 13 18 1011.1 1010.7 0.0
18/12:00pm 19.7 16.6 16.5 82 1.9 SSW 28 39 15 21 1011.2 1010.8 0.0
18/11:30am 20.1 17.1 16.9 82 1.9 SSW 28 35 15 19 1011.3 1010.9 0.0
18/11:00am 20.1 17.3 17.3 84 1.7 S 28 35 15 19 1011.4 1011.0 0.0
18/10:30am 19.7 17.9 17.8 89 1.2 SSW 24 33 13 18 1011.5 1011.1 0.0
18/10:00am 19.2 17.5 18.2 94 0.6 S 24 35 13 19 1011.6 1011.2 0.0
18/09:30am 19.0 17.7 19.0 100 0.0 SSW 24 33 13 18 1011.6 1011.2 0.0
18/09:00am 18.8 17.0 18.8 100 0.0 SSW 26 32 14 17 1011.7 1011.3 8.2
18/08:30am 18.5 17.7 18.5 100 0.0 SSW 20 28 11 15 1011.8 1011.4 8.2
18/08:00am 18.8 16.9 18.6 99 0.1 SSW 26 35 14 19 1011.2 1010.8 8.2
18/07:30am 18.9 18.5 18.9 100 0.0 SSW 19 26 10 14 1011.1 1010.7 8.2
18/07:00am 19.0 18.4 18.8 99 0.1 SSE 20 30 11 16 1010.9 1010.5 8.2
18/06:30am 18.7 18.0 18.7 100 0.0 S 20 30 11 16 1010.5 1010.1 8.2
18/06:00am 18.5 17.9 18.5 100 0.0 S 19 26 10 14 1010.4 1010.0 8.2

Latest Capital City Observations: Canberra | Sydney | Melbourne | Brisbane | Adelaide | Perth | Hobart | Darwin

Other formats

Comma delimited format used in spreadsheet applications
http://www.bom.gov.au/fwo/IDN60903/IDN60903.94750.axf

JavaScript Object Notation format (JSON) in row-major order
http://www.bom.gov.au/fwo/IDN60903/IDN60903.94750.json

Data quality

Most of these data are generated automatically and are frequently updated. Quality checks on data are not normally performed. It is possible for incorrect values to appear. Refer to information at About Latest Weather Observations and please check the disclaimer before using these data.